80.9F
Current conditions from King Hill
Updated every 5 minutes
 
  Friday July 3, 2020

Observations for Westford

Westford

44° 37' 38"N, 73° 02' 29"W, Elevation 850 ft.
Eastern Time

Hourly observations for the last 72 hours

Date Time Temperature (°F) Humi-
dity

(%)
Wind
(mph)
Pressure Rain (in)
Air Dew 6 Hour 1 Hr 3 Hr 6 Hr Day
Alt
(in)
Sea
Level

(mb)
Max Min
3 16:00 80.4 71.4 74 W 1 G 14 29.81 1009.3 0.00
3 15:00 80.4 72.5 77 WSW 1 G 6 29.81 1009.3 0.00
3 14:00 80.3 71.3 81.2 68.6 74 W 0 G 7 29.81 1009.5 0.00
3 13:00 78.8 71.4 78 WSW 2 G 7 29.82 1009.8 0.00
3 12:00 80.0 72.1 77 W 1 G 6 29.83 1010.1 0.00
3 11:00 75.2 70.4 85 SW 0 G 5 29.83 1010.1 0.00
3 10:00 71.7 68.3 89 W 1 G 6 29.82 1010.0 0.00
3 09:00 70.7 68.3 92 W 2 G 6 29.82 1009.9 0.00
3 08:00 68.7 67.2 69.1 67.5 95 W 0 G 2 29.82 1009.7 0.00
3 07:00 68.5 67.6 97 Calm 29.80 1009.3 0.00
3 06:00 68.2 67.3 97 Calm 29.78 1008.6 0.00
3 05:00 68.0 67.1 97 Calm 29.77 1008.2 0.00
3 04:00 67.6 66.4 96 Calm 29.77 1008.2 0.00
3 03:00 67.7 66.8 97 Calm 29.77 1008.2 0.00
3 02:00 67.9 66.4 76.0 67.8 95 Calm 29.77 1008.2 0.00
3 01:00 68.2 66.4 94 Calm 29.76 1008.0 0.00
3 00:00 68.4 66.0 92 Calm 29.75 1007.7 0.00
2 23:00 70.3 66.3 87 Calm 29.75 1007.6 0.00
2 22:00 72.9 66.7 81 WSW 0 G 3 29.76 1007.7 0.00
2 21:00 74.2 66.9 78 W 2 G 10 29.74 1007.2 0.00
2 20:00 75.9 68.9 85.2 75.9 79 W 1 G 10 29.73 1006.7 0.00
2 19:00 78.3 72.4 82 Calm 29.72 1006.4 0.00
2 18:00 80.4 71.4 74 WSW 1 G 4 29.71 1006.0 0.00
2 17:00 80.2 71.6 75 Calm 29.71 1006.2 0.00
2 16:00 83.6 72.8 70 W 0 G 8 29.71 1006.3 0.00
2 15:00 83.7 73.7 72 W 0 G 8 29.71 1006.2 0.00
2 14:00 84.7 73.4 84.7 68.2 69 WSW 0 G 7 29.71 1006.3 0.00
2 13:00 84.0 69.6 62 SSW 1 G 4 29.72 1006.6 0.00
2 12:00 82.8 71.2 68 SW 3 G 7 29.73 1006.9 0.00
2 11:00 81.3 70.6 70 SW 2 G 4 29.74 1007.2 0.00
2 10:00 77.7 69.9 77 SE 0 G 7 29.74 1007.1 0.00
2 09:00 73.9 68.4 83 S 2 G 8 29.75 1007.4 0.00
2 08:00 68.2 66.4 68.2 62.8 94 SSE 2 G 10 29.77 1008.0 0.00
2 07:00 65.5 64.9 98 S 0 G 8 29.76 1007.9 0.00
2 06:00 64.0 63.4 98 SSE 0 G 4 29.76 1007.9 0.00
2 05:00 63.2 62.6 98 S 2 G 5 29.75 1007.7 0.00
2 04:00 63.4 62.8 98 S 1 G 6 29.76 1007.8 0.00
2 03:00 63.4 62.8 98 SW 0 G 3 29.77 1008.0 0.00
2 02:00 63.6 62.7 75.3 63.1 97 SW 0 G 1 29.77 1008.1 0.00
2 01:00 63.4 62.5 97 WSW 0 G 2 29.78 1008.5 0.00
2 00:00 64.4 63.2 96 Calm 29.79 1008.8 0.03
1 23:00 65.3 64.1 96 Calm 29.80 1009.0 0.03
1 22:00 66.9 65.4 95 WSW 0 G 2 29.80 1009.1 0.03
1 21:00 69.6 67.2 92 Calm 29.79 1008.8 0.03
1 20:00 75.3 70.1 78.2 73.1 84 Calm 29.78 1008.5 0.03 0.03
1 19:00 76.8 71.6 84 Calm 29.79 1008.7 0.03
1 18:00 78.1 69.5 75 WSW 1 G 3 29.79 1009.0 0.03
1 17:00 75.7 70.2 83 Calm 29.80 1009.1 0.03 0.03
1 16:00 75.8 69.9 82 N 0 G 4 29.82 1009.7 0.03
1 15:00 73.2 69.1 87 N 0 G 4 29.82 1009.7 0.03 0.03
1 14:00 77.9 70.1 78.1 64.5 77 WSW 0 G 7 29.82 1009.9 0.00
1 13:00 74.9 68.0 79 NW 1 G 6 29.85 1010.7 0.00
1 12:00 72.7 69.3 89 W 0 G 8 29.86 1011.2 0.00
1 11:00 65.9 64.4 95 W 2 G 7 29.88 1011.8 0.00
1 10:00 64.9 63.7 96 W 3 G 7 29.88 1011.9 0.00
1 09:00 65.4 64.5 97 WNW 0 G 1 29.87 1011.6 0.00
1 08:00 64.8 64.2 64.8 62.5 98 WNW 1 G 4 29.86 1011.3 0.00
1 07:00 63.8 63.2 98 NNW 0 G 3 29.85 1011.0 0.00
1 06:00 63.1 62.5 98 Calm 29.86 1011.1 0.00
1 05:00 63.1 62.5 98 NNW 0 G 2 29.85 1010.9 0.00
1 04:00 63.1 62.5 98 Calm 29.86 1011.2 0.00
1 03:00 62.9 62.3 98 Calm 29.85 1011.0 0.00
1 02:00 62.6 62.0 69.7 61.3 98 Calm 29.87 1011.5 0.00
1 01:00 61.6 61.0 98 Calm 29.87 1011.6 0.00
1 00:00 61.9 60.7 96 Calm 29.88 1011.9 0.18
30 23:00 63.3 62.1 96 Calm 29.89 1012.2 0.29
30 22:00 64.9 63.7 96 NNW 0 G 1 29.90 1012.5 0.29
30 21:00 66.9 64.8 93 Calm 29.88 1012.0 0.29
30 20:00 69.7 67.0 75.8 68.4 91 Calm 29.89 1012.2 0.10 0.29
30 19:00 70.8 67.4 89 NNW 1 G 3 29.89 1012.3 0.29
30 18:00 69.3 66.9 92 NNW 1 G 6 29.89 1012.2 0.29
30 17:00 68.8 67.0 94 NW 1 G 4 29.89 1012.4 0.09 0.10 0.29

Data generated by WxSolution Version 1.9.1.7, Build 2018.11.24.


 
 
Current Radar Loop:

Copyright © WestfordWeather.net 2007-2020. All rights reserved.